Flight Track Log - Related Links

Times and Time Zones

All times are in EDT time to prevent confusion due to time zone crossing. See the JBU185 flight status page for this flight to view local times or setup timezone preferences in your user account.


Time Position Orientation Groundspeed Altitude Reporting Facility
EDT Latitude Longitude Course Direction KTS MPH feet Rate Location/Type
Sat 06:06:56 PM 40.6500 -73.8333 226° Southwest 157 181 1,400  Level New York TRACON
Sat 06:07:56 PM 40.6167 -73.8833 229° Southwest 224 258 2,500 2,050 Climbing New York TRACON
Sat 06:08:56 PM 40.5667 -73.9333 217° Southwest 260 299 5,500 3,050 Climbing New York TRACON
Sat 06:09:00 PM 40.4371 -74.0944 229° Southwest  Level FlightAware Approximate
Sat 06:09:56 PM 40.5000 -73.9833 210° Southwest 276 318 8,600  Level New York TRACON
Sat 06:10:00 PM 40.3663 -74.2005 232° Southwest  Level FlightAware Approximate
Sat 06:10:50 PM 40.4333 -74.0333 210° Southwest 276 318 11,100  Level New York TRACON
Sat 06:11:00 PM 40.2999 -74.3114 232° Southwest  Level FlightAware Approximate
Sat 06:11:50 PM 40.4000 -74.1333 246° West 316 364 12,700  Level New York TRACON
Sat 06:12:00 PM 40.2348 -74.4203 226° Southwest  Level FlightAware Approximate
Sat 06:12:24 PM 40.3708 -74.1736 226° Southwest 319 367 13,900  Level New York Center
Sat 06:13:22 PM 40.3178 -74.2797 237° Southwest 324 373 16,200 1,563 Climbing New York Center
Sat 06:14:23 PM 40.2736 -74.3647 236° Southwest 324 373 17,000 942 Climbing New York Center
Sat 06:15:23 PM 40.2139 -74.4728 234° Southwest 334 384 18,100 1,438 Climbing New York Center
Sat 06:16:24 PM 40.1914 -74.5911 256° West 334 384 19,900 1,785 Climbing New York Center
Sat 06:17:24 PM 40.1853 -74.7106 266° West 340 391 21,700 1,525 Climbing New York Center
Sat 06:18:22 PM 40.1747 -74.8347 264° West 340 391 22,900 1,169 Climbing New York Center
Sat 06:19:22 PM 40.1669 -74.9431 265° West 345 397 24,000 1,140 Climbing New York Center
Sat 06:20:23 PM 40.1581 -75.0756 265° West 350 403 25,200 1,190 Climbing New York Center
Sat 06:21:23 PM 40.1469 -75.2025 264° West 355 409 26,400 1,050 Climbing New York Center
Sat 06:22:23 PM 40.1358 -75.3322 264° West 360 414 27,300 1,050 Climbing New York Center
Sat 06:23:23 PM 40.1514 -75.4689 279° West 367 422 28,500 992 Climbing New York Center
Sat 06:24:24 PM 40.1875 -75.6072 289° West 385 443 29,300 1,240 Climbing New York Center
Sat 06:25:24 PM 40.1881 -75.7431 270° West 385 443 31,000 1,576 Climbing New York Center
Sat 06:26:22 PM 40.1847 -75.8653 268° West 365 420 32,400 1,008 Climbing New York Center
Sat 06:27:23 PM 40.1836 -75.9903 269° West 353 406 33,000 595 Climbing New York Center
Sat 06:28:23 PM 40.1794 -76.1311 268° West 353 406 33,600 504 Climbing New York Center
Sat 06:29:22 PM 40.1778 -76.2561 269° West 345 397 34,000 198 Climbing New York Center
Sat 06:30:24 PM 40.1722 -76.3750 267° West 350 403 34,000  Level New York Center
Sat 06:31:24 PM 40.1700 -76.5081 269° West 355 409 34,000  Level New York Center
Sat 06:32:24 PM 40.1678 -76.6383 269° West 366 421 34,000  Level New York Center
Sat 06:33:22 PM 40.1656 -76.7658 269° West 366 421 34,000  Level New York Center
Sat 06:34:22 PM 40.1486 -76.8919 260° West 360 414 34,000  Level New York Center
Sat 06:35:23 PM 40.0989 -77.0072 241° Southwest 341 392 34,000  Level New York Center
Sat 06:36:22 PM 40.0758 -77.1244 256° West 336 387 34,000  Level New York Center
Sat 06:38:45 PM 40.0778 -77.4328 271° West 360 414 34,000  Level Cleveland Center
Sat 06:39:45 PM 40.0772 -77.5686 270° West 366 421 34,000  Level Cleveland Center
Sat 06:40:45 PM 40.0767 -77.7017 270° West 366 421 34,000  Level Cleveland Center
Sat 06:41:45 PM 40.0778 -77.8344 271° West 371 427 34,000  Level Cleveland Center
Sat 06:42:45 PM 40.0728 -77.9731 267° West 371 427 34,000  Level Cleveland Center
Sat 06:43:45 PM 40.0714 -78.1061 269° West 376 433 34,000  Level Cleveland Center
Sat 06:44:45 PM 40.0703 -78.2444 269° West 376 433 34,000  Level Cleveland Center
Sat 06:45:45 PM 40.0667 -78.3803 268° West 376 433 34,000  Level Cleveland Center
Sat 06:46:45 PM 40.0672 -78.5131 270° West 376 433 34,000  Level Cleveland Center
Sat 06:47:45 PM 40.0675 -78.6489 270° West 376 433 34,000  Level Cleveland Center
Sat 06:48:45 PM 40.0633 -78.7819 268° West 376 433 34,000  Level Cleveland Center
Sat 06:49:45 PM 40.0611 -78.9122 269° West 376 433 34,000  Level Cleveland Center
Sat 06:50:45 PM 40.0589 -79.0478 269° West 371 427 34,000  Level Cleveland Center
Sat 06:51:45 PM 40.0564 -79.1808 269° West 366 421 34,000  Level Cleveland Center
Sat 06:52:45 PM 40.0539 -79.3136 269° West 361 415 34,000  Level Cleveland Center
Sat 06:53:45 PM 40.0550 -79.4331 271° West 366 421 34,000  Level Cleveland Center
Sat 06:54:45 PM 40.0522 -79.5661 268° West 366 421 34,000  Level Cleveland Center
Sat 06:55:45 PM 40.0492 -79.6989 268° West 366 421 34,000  Level Cleveland Center
Sat 06:56:45 PM 40.0481 -79.8319 269° West 366 421 34,000  Level Cleveland Center
Sat 06:57:45 PM 40.0447 -79.9675 268° West 366 421 34,000  Level Cleveland Center
Sat 06:58:45 PM 40.0411 -80.1031 268° West 366 421 34,000  Level Cleveland Center
Sat 07:01:07 PM 40.0283 -80.4303 267° West 376 433 34,000  Level Indianapolis Center
Sat 07:02:09 PM 40.0247 -80.5650 268° West 369 425 34,000  Level Indianapolis Center
Sat 07:03:10 PM 40.0200 -80.7019 267° West 371 427 34,000  Level Indianapolis Center
Sat 07:04:11 PM 40.0164 -80.8394 268° West 375 432 34,000  Level Indianapolis Center
Sat 07:05:12 PM 40.0142 -80.9764 269° West 376 433 34,000  Level Indianapolis Center
Sat 07:06:13 PM 40.0128 -81.1156 269° West 379 436 34,000  Level Indianapolis Center
Sat 07:07:14 PM 40.0103 -81.2522 269° West 375 432 34,000  Level Indianapolis Center
Sat 07:08:15 PM 40.0083 -81.3894 269° West 374 430 34,000  Level Indianapolis Center
Sat 07:09:16 PM 40.0053 -81.5236 268° West 368 423 34,000  Level Indianapolis Center
Sat 07:10:17 PM 40.0025 -81.6614 269° West 373 429 34,000  Level Indianapolis Center
Sat 07:11:18 PM 39.9997 -81.8036 269° West 380 437 34,000 -49 Level Indianapolis Center
Sat 07:12:19 PM 39.9961 -81.9425 268° West 381 438 33,900 -49 Descending Indianapolis Center
Sat 07:13:20 PM 39.9939 -82.0828 269° West 384 442 33,900 49 Level Indianapolis Center
Sat 07:14:21 PM 39.9894 -82.2236 268° West 385 443 34,000 49 Climbing Indianapolis Center
Sat 07:15:22 PM 39.9861 -82.3664 268° West 389 448 34,000  Level Indianapolis Center
Sat 07:16:23 PM 39.9822 -82.5069 268° West 386 444 34,000  Level Indianapolis Center
Sat 07:17:24 PM 39.9769 -82.6711 268° West 383 441 34,000 -49 Level Indianapolis Center
Sat 07:18:26 PM 39.9731 -82.8108 268° West 384 442 33,900 -49 Descending Indianapolis Center
Sat 07:19:27 PM 39.9686 -82.9506 268° West 383 441 33,900 49 Level Indianapolis Center
Sat 07:20:28 PM 39.9639 -83.0908 268° West 384 442 34,000 49 Climbing Indianapolis Center
Sat 07:21:29 PM 39.9628 -83.2300 269° West 385 443 34,000  Level Indianapolis Center
Sat 07:22:29 PM 39.9572 -83.3689 267° West 385 443 34,000  Level Indianapolis Center
Sat 07:23:30 PM 39.9517 -83.5044 267° West 381 438 34,000 -49 Level Indianapolis Center
Sat 07:24:31 PM 39.9467 -83.6392 267° West 377 434 33,900 -49 Descending Indianapolis Center
Sat 07:25:32 PM 39.9422 -83.7753 268° West 376 433 33,900 49 Level Indianapolis Center
Sat 07:26:33 PM 39.9369 -83.9128 267° West 377 434 34,000 49 Climbing Indianapolis Center
Sat 07:27:34 PM 39.9311 -84.0522 267° West 382 440 34,000  Level Indianapolis Center
Sat 07:28:35 PM 39.9267 -84.1917 268° West 382 440 34,000  Level Indianapolis Center
Sat 07:29:36 PM 39.9200 -84.3306 266° West 382 440 34,000  Level Indianapolis Center
Sat 07:30:37 PM 39.9136 -84.4697 267° West 382 440 34,000  Level Indianapolis Center
Sat 07:31:38 PM 39.9075 -84.6086 267° West 382 440 34,000  Level Indianapolis Center
Sat 07:32:39 PM 39.9019 -84.7475 267° West 382 440 34,000  Level Indianapolis Center
Sat 07:33:40 PM 39.8944 -84.9089 267° West 380 437 34,000  Level Indianapolis Center
Sat 07:34:41 PM 39.8861 -85.0475 266° West 381 438 34,000  Level Indianapolis Center
Sat 07:35:42 PM 39.8800 -85.1861 267° West 381 438 34,000  Level Indianapolis Center
Sat 07:36:43 PM 39.8719 -85.3264 266° West 384 442 34,000  Level Indianapolis Center
Sat 07:37:44 PM 39.8650 -85.4667 266° West 384 442 34,000  Level Indianapolis Center
Sat 07:38:45 PM 39.8589 -85.6061 267° West 385 443 34,000 -49 Level Indianapolis Center
Sat 07:39:46 PM 39.8497 -85.7456 265° West 384 442 33,900  Descending Indianapolis Center
Sat 07:40:47 PM 39.8425 -85.8867 266° West 386 444 34,000 49 Climbing Indianapolis Center
Sat 07:41:48 PM 39.8344 -86.0325 266° West 388 447 34,000  Level Indianapolis Center
Sat 07:42:48 PM 39.8267 -86.1742 266° West 390 449 34,000  Level Indianapolis Center
Sat 07:43:49 PM 39.8175 -86.3158 265° West 392 451 34,000  Level Indianapolis Center
Sat 07:44:50 PM 39.8161 -86.4581 269° West 393 452 34,000  Level Indianapolis Center
Sat 07:45:51 PM 39.8194 -86.6011 272° West 394 453 34,000  Level Indianapolis Center
Sat 07:46:52 PM 39.8228 -86.7428 272° West 393 452 34,000  Level Indianapolis Center
Sat 07:47:53 PM 39.8256 -86.8853 271° West 394 453 34,000  Level Indianapolis Center
Sat 07:48:54 PM 39.8275 -87.0278 271° West 394 453 34,000  Level Indianapolis Center
Sat 07:49:55 PM 39.8300 -87.1706 271° West 394 453 34,000  Level Indianapolis Center
Sat 07:50:56 PM 39.8322 -87.3158 271° West 399 459 34,000  Level Indianapolis Center
Sat 07:51:57 PM 39.8339 -87.4581 271° West 396 456 34,000  Level Indianapolis Center
Sat 07:52:58 PM 39.8356 -87.6003 271° West 394 453 34,000  Level Indianapolis Center
Sat 07:53:59 PM 39.8369 -87.7417 271° West 392 451 34,000  Level Indianapolis Center
Sat 07:55:00 PM 39.8383 -87.8842 271° West 392 451 34,000  Level Indianapolis Center
Sat 07:56:00 PM 39.8397 -88.0253 271° West 392 451 34,000  Level Indianapolis Center
Sat 07:57:01 PM 39.8408 -88.1681 271° West 393 452 34,000  Level Indianapolis Center
Sat 07:57:34 PM 39.8400 -88.2486 269° West 394 453 34,000  Level Kansas City Center
Sat 07:58:35 PM 39.8411 -88.3906 271° West 394 453 34,000  Level Kansas City Center
Sat 07:59:41 PM 39.8411 -88.5631 270° West 395 455 34,000  Level Kansas City Center
Sat 08:00:42 PM 39.8428 -88.7047 271° West 394 453 34,000  Level Kansas City Center
Sat 08:01:43 PM 39.8422 -88.8481 270° West 394 453 34,000  Level Kansas City Center
Sat 08:02:43 PM 39.8422 -88.9903 270° West 392 451 34,000  Level Kansas City Center
Sat 08:03:44 PM 39.8422 -89.1317 270° West 391 450 34,000  Level Kansas City Center
Sat 08:04:48 PM 39.8411 -89.2739 269° West 391 450 34,000  Level Kansas City Center
Sat 08:05:48 PM 39.8411 -89.4156 270° West 392 451 34,000  Level Kansas City Center
Sat 08:06:49 PM 39.8408 -89.5575 270° West 392 451 34,000  Level Kansas City Center
Sat 08:07:50 PM 39.8381 -89.7008 269° West 394 453 34,000  Level Kansas City Center
Sat 08:08:54 PM 39.8253 -89.8422 263° West 394 453 34,000  Level Kansas City Center
Sat 08:09:54 PM 39.8094 -90.0106 263° West 391 450 34,000  Level Kansas City Center
Sat 08:10:55 PM 39.7972 -90.1531 264° West 393 452 34,000  Level Kansas City Center
Sat 08:11:57 PM 39.7847 -90.2939 263° West 392 451 34,000  Level Kansas City Center
Sat 08:12:57 PM 39.7714 -90.4347 263° West 391 450 34,000  Level Kansas City Center
Sat 08:13:58 PM 39.7581 -90.5744 263° West 391 450 34,000  Level Kansas City Center
Sat 08:14:59 PM 39.7453 -90.7192 263° West 392 451 34,000  Level Kansas City Center
Sat 08:16:02 PM 39.7308 -90.8567 262° West 389 448 34,000  Level Kansas City Center
Sat 08:17:03 PM 39.7181 -90.9972 263° West 392 451 34,000  Level Kansas City Center
Sat 08:18:05 PM 39.7042 -91.1356 263° West 390 449 34,000  Level Kansas City Center
Sat 08:19:06 PM 39.6897 -91.2767 262° West 394 453 34,000  Level Kansas City Center
Sat 08:20:07 PM 39.6750 -91.4267 263° West 396 456 34,000  Level Kansas City Center
Sat 08:21:07 PM 39.6600 -91.5667 262° West 394 453 34,000  Level Kansas City Center
Sat 08:22:10 PM 39.6444 -91.7083 262° West 396 456 34,000  Level Kansas City Center
Sat 08:23:11 PM 39.6306 -91.8478 263° West 395 455 34,000  Level Kansas City Center
Sat 08:24:12 PM 39.6117 -92.0175 262° West 396 456 34,000  Level Kansas City Center
Sat 08:25:13 PM 39.5972 -92.1586 262° West 397 457 34,000  Level Kansas City Center
Sat 08:26:12 PM 39.5811 -92.2989 262° West 396 456 34,000  Level Kansas City Center
Sat 08:27:16 PM 39.5658 -92.4414 262° West 398 458 34,000  Level Kansas City Center
Sat 08:28:17 PM 39.5494 -92.5847 262° West 402 463 34,000  Level Kansas City Center
Sat 08:29:19 PM 39.5336 -92.7267 262° West 401 461 34,000  Level Kansas City Center
Sat 08:30:19 PM 39.5164 -92.8669 261° West 397 457 34,000  Level Kansas City Center
Sat 08:31:19 PM 39.5000 -93.0086 262° West 397 457 34,000  Level Kansas City Center
Sat 08:32:21 PM 39.4836 -93.1489 261° West 397 457 34,000  Level Kansas City Center
Sat 08:33:22 PM 39.4636 -93.3186 261° West 399 459 34,000  Level Kansas City Center
Sat 08:34:25 PM 39.4453 -93.4589 260° West 398 458 34,000  Level Kansas City Center
Sat 08:35:25 PM 39.4292 -93.6011 262° West 401 461 34,000  Level Kansas City Center
Sat 08:36:27 PM 39.4100 -93.7553 261° West 400 460 34,000  Level Kansas City Center
Sat 08:37:28 PM 39.3961 -93.8764 262° West 399 459 34,000  Level Kansas City Center
Sat 08:38:29 PM 39.3761 -94.0358 261° West 403 464 34,000  Level Kansas City Center
Sat 08:39:31 PM 39.3589 -94.1719 261° West 402 463 34,000  Level Kansas City Center
Sat 08:40:31 PM 39.3389 -94.3311 261° West 402 463 34,000  Level Kansas City Center
Sat 08:41:31 PM 39.3211 -94.4681 261° West 404 465 34,000  Level Kansas City Center
Sat 08:42:35 PM 39.3042 -94.6044 261° West 403 464 34,000  Level Kansas City Center
Sat 08:43:36 PM 39.2822 -94.7625 260° West 401 461 34,000  Level Kansas City Center
Sat 08:44:36 PM 39.2667 -94.8983 262° West 400 460 34,000  Level Kansas City Center
Sat 08:45:37 PM 39.2517 -95.0339 262° West 400 460 34,000  Level Kansas City Center
Sat 08:46:38 PM 39.2325 -95.2011 262° West 398 458 34,000  Level Kansas City Center
Sat 08:47:40 PM 39.2158 -95.3453 262° West 405 466 34,000  Level Kansas City Center
Sat 08:48:41 PM 39.2003 -95.4778 261° West 403 464 34,000  Level Kansas City Center
Sat 08:49:42 PM 39.1839 -95.6147 261° West 404 465 34,000  Level Kansas City Center
Sat 08:50:43 PM 39.1647 -95.7756 261° West 407 468 34,000  Level Kansas City Center
Sat 08:51:44 PM 39.1469 -95.9150 261° West 410 472 34,000  Level Kansas City Center
Sat 08:52:46 PM 39.1272 -96.0756 261° West 405 466 34,000  Level Kansas City Center
Sat 08:53:46 PM 39.1097 -96.2142 261° West 407 468 34,000  Level Kansas City Center
Sat 08:54:48 PM 39.0925 -96.3522 261° West 408 470 34,000  Level Kansas City Center
Sat 08:55:48 PM 39.0725 -96.5133 261° West 409 471 34,000  Level Kansas City Center
Sat 08:56:48 PM 39.0525 -96.6494 259° West 406 467 34,000  Level Kansas City Center
Sat 08:57:50 PM 39.0339 -96.7894 260° West 411 473 34,000  Level Kansas City Center
Sat 08:58:50 PM 39.0122 -96.9519 260° West 413 475 34,000  Level Kansas City Center
Sat 08:59:52 PM 38.9939 -97.0908 260° West 413 475 34,000  Level Kansas City Center
Sat 09:00:54 PM 38.9767 -97.2481 262° West 416 479 34,000  Level Kansas City Center
Sat 09:01:55 PM 38.9597 -97.3722 260° West 415 478 34,000  Level Kansas City Center
Sat 09:02:55 PM 38.9375 -97.5339 260° West 413 475 34,000  Level Kansas City Center
Sat 09:03:56 PM 38.9158 -97.6972 260° West 416 479 34,000  Level Kansas City Center
Sat 09:04:57 PM 38.9003 -97.8372 262° West 415 478 34,000  Level Kansas City Center
Sat 09:05:57 PM 38.8800 -97.9836 260° West 419 482 34,000  Level Kansas City Center
Sat 09:07:00 PM 38.8619 -98.1297 261° West 418 481 34,000  Level Kansas City Center
Sat 09:08:01 PM 38.8442 -98.2767 261° West 419 482 34,000  Level Kansas City Center
Sat 09:09:00 PM 38.8256 -98.4222 261° West 417 480 34,000  Level Kansas City Center
Sat 09:10:01 PM 38.8075 -98.5703 261° West 420 483 34,000  Level Kansas City Center
Sat 09:11:03 PM 38.7869 -98.7172 260° West 421 484 34,000  Level Kansas City Center
Sat 09:12:04 PM 38.7700 -98.8636 262° West 418 481 34,000  Level Kansas City Center
Sat 09:13:04 PM 38.7458 -99.0400 260° West 420 483 34,000  Level Kansas City Center
Sat 09:14:07 PM 38.7242 -99.1886 259° West 426 490 34,000  Level Kansas City Center
Sat 09:15:08 PM 38.7050 -99.3369 261° West 424 488 34,000  Level Kansas City Center
Sat 09:15:54 PM 38.6906 -99.4436 260° West 423 487 34,000  Level Denver Center
Sat 09:16:55 PM 38.6678 -99.6094 260° West 426 490 34,000  Level Denver Center
Sat 09:17:57 PM 38.6475 -99.7514 260° West 424 488 34,000  Level Denver Center
Sat 09:18:58 PM 38.6253 -99.9181 260° West 427 491 34,000  Level Denver Center
Sat 09:19:59 PM 38.6044 -100.0617 260° West 429 494 34,000  Level Denver Center
Sat 09:21:01 PM 38.5836 -100.2025 259° West 427 491 34,000  Level Denver Center
Sat 09:22:02 PM 38.5594 -100.3675 259° West 426 490 34,000  Level Denver Center
Sat 09:23:03 PM 38.5386 -100.5089 259° West 424 488 34,000  Level Denver Center
Sat 09:24:05 PM 38.5144 -100.6733 259° West 425 489 34,000  Level Denver Center
Sat 09:25:06 PM 38.4928 -100.8158 259° West 426 490 34,000  Level Denver Center
Sat 09:26:07 PM 38.4678 -100.9814 259° West 427 491 34,000  Level Denver Center
Sat 09:27:09 PM 38.4475 -101.1233 260° West 427 491 34,000  Level Denver Center
Sat 09:28:10 PM 38.4250 -101.2625 258° West 421 484 34,000  Level Denver Center
Sat 09:29:11 PM 38.3994 -101.4278 259° West 425 489 34,000  Level Denver Center
Sat 09:30:13 PM 38.3786 -101.5686 259° West 424 488 34,000  Level Denver Center
Sat 09:31:14 PM 38.3522 -101.7314 258° West 420 483 34,000  Level Denver Center
Sat 09:32:15 PM 38.3303 -101.8697 259° West 418 481 34,000  Level Denver Center
Sat 09:33:17 PM 38.3078 -102.0097 258° West 419 482 34,000  Level Denver Center
Sat 09:34:18 PM 38.2817 -102.1711 258° West 419 482 34,000  Level Denver Center
Sat 09:35:20 PM 38.2597 -102.3103 259° West 420 483 34,000  Level Denver Center
Sat 09:36:21 PM 38.2319 -102.4736 258° West 423 487 34,000  Level Denver Center
Sat 09:37:22 PM 38.2092 -102.6153 258° West 427 491 34,000  Level Denver Center
Sat 09:38:24 PM 38.1733 -102.7794 255° West 434 499 34,000 49 Level Denver Center
Sat 09:39:25 PM 38.1375 -102.9172 252° West 431 496 34,100  Climbing Denver Center
Sat 09:40:27 PM 38.1028 -103.0544 252° West 428 493 34,000 -49 Descending Denver Center
Sat 09:41:28 PM 38.0650 -103.2011 252° West 425 489 34,000  Level Denver Center
Sat 09:42:29 PM 38.0239 -103.3594 252° West 425 489 34,000  Level Denver Center
Sat 09:43:31 PM 37.9883 -103.4944 252° West 425 489 34,000  Level Denver Center
Sat 09:44:32 PM 37.9467 -103.6531 252° West 425 489 34,000  Level Denver Center
Sat 09:45:34 PM 37.9108 -103.7894 252° West 427 491 34,000 49 Level Denver Center
Sat 09:46:35 PM 37.8733 -103.9253 251° West 429 494 34,100  Climbing Denver Center
Sat 09:47:36 PM 37.8311 -104.0819 251° West 426 490 34,000 -49 Descending Denver Center
Sat 09:48:37 PM 37.7947 -104.2164 251° West 427 491 34,000 49 Level Denver Center
Sat 09:49:39 PM 37.7525 -104.3725 251° West 424 488 34,100  Climbing Denver Center
Sat 09:50:40 PM 37.7169 -104.5056 251° West 421 484 34,000 -49 Descending Denver Center
Sat 09:51:42 PM 37.6739 -104.6597 251° West 419 482 34,000  Level Denver Center
Sat 09:52:43 PM 37.6378 -104.7919 251° West 419 482 34,000  Level Denver Center
Sat 09:53:44 PM 37.6008 -104.9242 251° West 419 482 34,000  Level Denver Center
Sat 09:54:46 PM 37.5564 -105.0786 250° West 420 483 34,000  Level Denver Center
Sat 09:55:47 PM 37.5214 -105.2072 251° West 421 484 34,000 49 Level Denver Center
Sat 09:56:48 PM 37.4781 -105.3625 251° West 423 487 34,100  Climbing Denver Center
Sat 09:57:49 PM 37.4400 -105.4942 250° West 419 482 34,000 -49 Descending Denver Center
Sat 09:58:51 PM 37.3956 -105.6497 250° West 423 487 34,000  Level Denver Center
Sat 09:59:52 PM 37.3578 -105.7817 250° West 421 484 34,000  Level Denver Center
Sat 10:00:53 PM 37.3228 -105.9139 252° West 419 482 34,000  Level Denver Center
Sat 10:01:55 PM 37.2836 -106.0686 252° West 418 481 34,000  Level Denver Center
Sat 10:02:56 PM 37.2483 -106.1997 251° West 415 478 34,000  Level Denver Center
Sat 10:03:57 PM 37.2111 -106.3544 253° West 416 479 34,000  Level Denver Center
Sat 10:04:58 PM 37.1781 -106.4856 252° West 414 476 34,000  Level Denver Center
Sat 10:06:00 PM 37.1411 -106.6169 251° West 417 480 34,000  Level Denver Center
Sat 10:07:01 PM 37.1028 -106.7714 253° West 416 479 34,000  Level Denver Center
Sat 10:08:02 PM 37.0689 -106.9058 253° West 421 484 34,000 49 Level Denver Center
Sat 10:09:03 PM 37.0283 -107.0600 252° West 420 483 34,100  Climbing Denver Center
Sat 10:10:04 PM 36.9953 -107.1886 252° West 410 472 34,000 -98 Descending Denver Center
Sat 10:11:05 PM 36.9608 -107.3158 251° West 403 464 33,900  Descending Denver Center
Sat 10:12:06 PM 36.9217 -107.4633 252° West 402 463 34,000 49 Climbing Denver Center
Sat 10:13:08 PM 36.8875 -107.5908 252° West 404 465 34,000  Level Denver Center
Sat 10:14:09 PM 36.8533 -107.7164 251° West 400 460 34,000  Level Denver Center
Sat 10:15:10 PM 36.8131 -107.8653 251° West 405 466 34,000 49 Level Denver Center
Sat 10:16:11 PM 36.7783 -107.9931 251° West 407 468 34,100  Climbing Denver Center
Sat 10:17:12 PM 36.7397 -108.1397 252° West 401 461 34,000 -45 Descending Denver Center
Sat 10:18:25 PM 36.7139 -108.2878 258° West 392 451 34,000  Level Denver Center
Sat 10:19:26 PM 36.6864 -108.4367 257° West 396 456 34,000  Level Denver Center
Sat 10:20:27 PM 36.6622 -108.5667 257° West 401 461 34,000  Level Denver Center
Sat 10:21:29 PM 36.6381 -108.6936 257° West 397 457 34,000  Level Denver Center
Sat 10:22:30 PM 36.6094 -108.8425 257° West 397 457 34,000  Level Denver Center
Sat 10:23:31 PM 36.5856 -108.9719 257° West 402 463 34,000  Level Denver Center
Sat 10:24:32 PM 36.5569 -109.1214 257° West 400 460 34,000  Level Denver Center
Sat 10:25:33 PM 36.5319 -109.2469 256° West 395 455 34,000  Level Denver Center
Sat 10:26:34 PM 36.5081 -109.3742 257° West 396 456 34,000  Level Denver Center
Sat 10:27:35 PM 36.4783 -109.5225 256° West 397 457 34,000  Level Denver Center
Sat 10:28:36 PM 36.4547 -109.6475 257° West 392 451 34,000  Level Denver Center
Sat 10:29:37 PM 36.4303 -109.7719 256° West 389 448 34,000  Level Denver Center
Sat 10:30:38 PM 36.4006 -109.9194 256° West 393 452 34,000  Level Denver Center
Sat 10:31:39 PM 36.3764 -110.0469 257° West 395 455 34,000  Level Denver Center
Sat 10:32:40 PM 36.3478 -110.1867 256° West 395 455 34,000  Level Denver Center
Sat 10:33:41 PM 36.3208 -110.3189 256° West 396 456 34,000  Level Denver Center
Sat 10:34:42 PM 36.2939 -110.4519 256° West 398 458 34,000  Level Denver Center
Sat 10:35:43 PM 36.2656 -110.5847 255° West 399 459 34,000  Level Denver Center
Sat 10:36:44 PM 36.2372 -110.7192 255° West 402 463 34,000  Level Denver Center
Sat 10:37:45 PM 36.2103 -110.8517 256° West 400 460 34,000  Level Denver Center
Sat 10:38:46 PM 36.1828 -110.9828 255° West 396 456 34,000  Level Denver Center
Sat 10:39:46 PM 36.1544 -111.1164 255° West 399 459 34,000  Level Denver Center
Sat 10:40:47 PM 36.1228 -111.2486 254° West 399 459 34,000  Level Denver Center
Sat 10:41:48 PM 36.0636 -111.3728 240° Southwest 414 476 34,000  Level Denver Center
Sat 10:42:49 PM 35.9831 -111.5150 235° Southwest 420 483 34,000  Level Denver Center
Sat 10:43:50 PM 35.9164 -111.6325 235° Southwest 419 482 34,000  Level Denver Center
Sat 10:44:51 PM 35.8489 -111.7514 235° Southwest 421 484 34,000  Level Denver Center
Sat 10:45:14 PM 35.8325 -111.7781 233° Southwest 418 481 34,000  Level Los Angeles Center
Sat 10:46:15 PM 35.7661 -111.8950 235° Southwest 418 481 34,000  Level Los Angeles Center
Sat 10:47:16 PM 35.6844 -112.0350 234° Southwest 420 483 34,000  Level Los Angeles Center
Sat 10:48:18 PM 35.6167 -112.1511 234° Southwest 421 484 34,000  Level Los Angeles Center
Sat 10:48:49 PM 35.5903 -112.1978 235° Southwest 418 481 34,000  Level Albuquerque Center
Sat 10:49:50 PM 35.5228 -112.3147 235° Southwest 420 483 34,000  Level Albuquerque Center
Sat 10:50:51 PM 35.4547 -112.4322 235° Southwest 422 486 34,000  Level Albuquerque Center
Sat 10:51:09 PM 35.4278 -112.4789 235° Southwest 421 484 34,000  Level Los Angeles Center
Sat 10:51:51 PM 35.3742 -112.5703 234° Southwest 417 480 34,000  Level Albuquerque Center
Sat 10:52:52 PM 35.3061 -112.6864 234° Southwest 417 480 34,000  Level Albuquerque Center
Sat 10:53:53 PM 35.2364 -112.8036 234° Southwest 419 482 34,000  Level Albuquerque Center
Sat 10:54:53 PM 35.1669 -112.9225 234° Southwest 421 484 34,000  Level Albuquerque Center
Sat 10:55:14 PM 35.1542 -112.9431 233° Southwest 421 484 34,000  Level Los Angeles Center
Sat 10:55:54 PM 35.0983 -113.0397 235° Southwest 421 484 34,000  Level Albuquerque Center
Sat 10:56:55 PM 35.0289 -113.1547 234° Southwest 421 484 34,000  Level Albuquerque Center
Sat 10:57:56 PM 34.9603 -113.2711 234° Southwest 422 486 34,000  Level Albuquerque Center
Sat 10:58:56 PM 34.8906 -113.3864 234° Southwest 423 487 34,000  Level Albuquerque Center
Sat 10:59:57 PM 34.8222 -113.5019 234° Southwest 423 487 34,000  Level Albuquerque Center
Sat 11:00:58 PM 34.7531 -113.6186 234° Southwest 424 488 34,000  Level Albuquerque Center
Sat 11:01:58 PM 34.6817 -113.7344 233° Southwest 429 494 34,000  Level Albuquerque Center
Sat 11:02:59 PM 34.6047 -113.8633 234° Southwest 428 493 34,000  Level Albuquerque Center
Sat 11:04:00 PM 34.5344 -113.9800 234° Southwest 428 493 34,000  Level Albuquerque Center
Sat 11:05:00 PM 34.4653 -114.0925 233° Southwest 420 483 34,000  Level Albuquerque Center
Sat 11:05:26 PM 34.4381 -114.1333 231° Southwest 413 475 34,000 -207 Level Los Angeles Center
Sat 11:06:27 PM 34.3692 -114.2481 234° Southwest 420 483 33,700 -563 Descending Los Angeles Center
Sat 11:07:02 PM 34.3278 -114.3164 234° Southwest 413 475 33,100 -1,011 Descending Albuquerque Center
Sat 11:08:02 PM 34.2597 -114.4269 233° Southwest 411 473 32,100 -955 Descending Albuquerque Center
Sat 11:08:30 PM 34.2331 -114.4714 234° Southwest 413 475 31,700 -944 Descending Los Angeles Center
Sat 11:09:31 PM 34.1636 -114.5828 233° Southwest 415 478 30,700 -806 Descending Los Angeles Center
Sat 11:10:44 PM 34.0933 -114.6989 234° Southwest 429 494 29,900 -311 Descending Los Angeles Center
Sat 11:11:46 PM 34.0250 -114.8564 242° Southwest 439 505 30,000 -634 Climbing Los Angeles Center
Sat 11:12:47 PM 33.9583 -115.0097 242° Southwest 433 498 28,600 -1,033 Descending Los Angeles Center
Sat 11:13:48 PM 33.9019 -115.1336 241° Southwest 425 489 27,900 -541 Descending Los Angeles Center
Sat 11:14:49 PM 33.8469 -115.2583 242° Southwest 423 487 27,500 -634 Descending Los Angeles Center
Sat 11:15:51 PM 33.7917 -115.3819 242° Southwest 421 484 26,600 -927 Descending Los Angeles Center
Sat 11:16:52 PM 33.7369 -115.5064 242° Southwest 422 486 25,600 -984 Descending Los Angeles Center
Sat 11:17:53 PM 33.6814 -115.6272 241° Southwest 416 479 24,600 -1,180 Descending Los Angeles Center
Sat 11:18:54 PM 33.6258 -115.7489 241° Southwest 416 479 23,200 -1,902 Descending Los Angeles Center
Sat 11:19:56 PM 33.5519 -115.8519 229° Southwest 415 478 20,700 -1,707 Descending Los Angeles Center
Sat 11:20:57 PM 33.4694 -115.9422 222° Southwest 407 468 19,700 -984 Descending Los Angeles Center
Sat 11:21:58 PM 33.3853 -116.0333 222° Southwest 407 468 18,700 -1,082 Descending Los Angeles Center
Sat 11:22:59 PM 33.2872 -116.1403 222° Southwest 401 461 17,500 -1,024 Descending Los Angeles Center
Sat 11:24:01 PM 33.2061 -116.2283 222° Southwest 397 457 16,600 -1,512 Descending Los Angeles Center
Sat 11:25:02 PM 33.1258 -116.3139 222° Southwest 392 451 14,400 -2,213 Descending Los Angeles Center
Sat 11:26:03 PM 33.0481 -116.3986 222° Southwest 381 438 12,100 -2,410 Descending Los Angeles Center
Sat 11:27:04 PM 32.9894 -116.4883 232° Southwest 360 414 9,500 -1,561 Descending Los Angeles Center
Sat 11:28:06 PM 32.9383 -116.5603 230° Southwest 297 342 8,900 -537 Descending Los Angeles Center
Sat 11:29:07 PM 32.8772 -116.6467 230° Southwest 288 331 8,400 -1,328 Descending Los Angeles Center
Sat 11:30:08 PM 32.8267 -116.7178 230° Southwest 286 329 6,200 -1,220 Descending Los Angeles Center
Sat 11:31:10 PM 32.7783 -116.7856 230° Southwest 276 318 5,900 -533 Descending Los Angeles Center
Sat 11:32:23 PM 32.7328 -116.8483 229° Southwest 260 299 5,000 -850 Descending Los Angeles Center
Sat 11:33:10 PM 32.6833 -116.9167 229° Southwest 249 287 4,200 -841 Descending Southern California TRACON
Sat 11:34:10 PM 32.6833 -116.9833 270° West 229 264 3,500 -850 Descending Southern California TRACON
Sat 11:35:10 PM 32.7000 -117.0500 287° West 208 239 2,500 -1,000 Descending Southern California TRACON
Sat 11:36:16 PM 32.7167 -117.1167 287° West 177 204 1,400 -950 Descending Southern California TRACON
Sat 11:37:10 PM 32.7333 -117.1500 301° West 143 165 600 -892 Descending Southern California TRACON
Sat 11:37:30 PM 32.7278 -117.1636 244° Southwest 154 177 300 -900 Descending Los Angeles Center

Login

Don't have an account? Register now (free) for customized features, flight alerts, and more!